sensor_id;sensor_type;location;lat;lon;timestamp;temperature;humidity
18041;DHT22;9145;48.588;9.250;2022-10-24T00:01:35;18.60;99.90
18041;DHT22;9145;48.588;9.250;2022-10-24T00:04:03;18.60;99.90
18041;DHT22;9145;48.588;9.250;2022-10-24T00:06:30;18.70;99.90
18041;DHT22;9145;48.588;9.250;2022-10-24T00:08:57;18.70;99.90
18041;DHT22;9145;48.588;9.250;2022-10-24T00:11:25;18.70;99.90
18041;DHT22;9145;48.588;9.250;2022-10-24T00:13:54;18.70;99.90
18041;DHT22;9145;48.588;9.250;2022-10-24T00:16:21;18.70;99.90
18041;DHT22;9145;48.588;9.250;2022-10-24T00:18:48;18.70;99.90
18041;DHT22;9145;48.588;9.250;2022-10-24T00:21:16;18.80;99.90
18041;DHT22;9145;48.588;9.250;2022-10-24T00:23:43;18.80;99.90
18041;DHT22;9145;48.588;9.250;2022-10-24T00:26:11;18.80;99.90
18041;DHT22;9145;48.588;9.250;2022-10-24T00:28:39;18.70;99.90
18041;DHT22;9145;48.588;9.250;2022-10-24T00:31:07;18.70;99.90
18041;DHT22;9145;48.588;9.250;2022-10-24T00:33:34;18.70;99.90
18041;DHT22;9145;48.588;9.250;2022-10-24T00:36:02;18.70;99.90
18041;DHT22;9145;48.588;9.250;2022-10-24T00:38:30;18.70;99.90
18041;DHT22;9145;48.588;9.250;2022-10-24T00:40:57;18.60;99.90
18041;DHT22;9145;48.588;9.250;2022-10-24T00:43:25;18.60;99.90
18041;DHT22;9145;48.588;9.250;2022-10-24T00:45:54;18.60;99.90
18041;DHT22;9145;48.588;9.250;2022-10-24T00:48:25;18.50;99.90
18041;DHT22;9145;48.588;9.250;2022-10-24T00:50:55;18.50;99.90
18041;DHT22;9145;48.588;9.250;2022-10-24T00:53:23;18.40;99.90
18041;DHT22;9145;48.588;9.250;2022-10-24T00:55:54;18.40;99.90
18041;DHT22;9145;48.588;9.250;2022-10-24T00:58:25;18.40;99.90
18041;DHT22;9145;48.588;9.250;2022-10-24T01:00:52;18.40;99.90
18041;DHT22;9145;48.588;9.250;2022-10-24T01:03:19;18.30;99.90
18041;DHT22;9145;48.588;9.250;2022-10-24T01:06:06;18.30;99.90
18041;DHT22;9145;48.588;9.250;2022-10-24T01:08:45;18.20;99.90
18041;DHT22;9145;48.588;9.250;2022-10-24T01:11:22;18.10;99.90
18041;DHT22;9145;48.588;9.250;2022-10-24T01:14:00;18.00;99.90
18041;DHT22;9145;48.588;9.250;2022-10-24T01:16:32;18.00;99.90
18041;DHT22;9145;48.588;9.250;2022-10-24T01:19:13;17.90;99.90
18041;DHT22;9145;48.588;9.250;2022-10-24T01:21:49;17.90;99.90
18041;DHT22;9145;48.588;9.250;2022-10-24T01:24:32;17.90;99.90
18041;DHT22;9145;48.588;9.250;2022-10-24T01:27:36;17.80;99.90
18041;DHT22;9145;48.588;9.250;2022-10-24T01:30:07;17.70;99.90
18041;DHT22;9145;48.588;9.250;2022-10-24T01:32:41;17.70;99.90
18041;DHT22;9145;48.588;9.250;2022-10-24T01:35:20;17.60;99.90
18041;DHT22;9145;48.588;9.250;2022-10-24T01:37:53;17.60;99.90
18041;DHT22;9145;48.588;9.250;2022-10-24T01:40:27;17.50;99.90
18041;DHT22;9145;48.588;9.250;2022-10-24T01:42:58;17.50;99.90
18041;DHT22;9145;48.588;9.250;2022-10-24T01:45:31;17.50;99.90
18041;DHT22;9145;48.588;9.250;2022-10-24T01:48:01;17.50;99.90
18041;DHT22;9145;48.588;9.250;2022-10-24T01:50:31;17.50;99.90
18041;DHT22;9145;48.588;9.250;2022-10-24T01:53:00;17.40;99.90
18041;DHT22;9145;48.588;9.250;2022-10-24T01:55:29;17.50;99.90
18041;DHT22;9145;48.588;9.250;2022-10-24T01:57:56;17.50;99.90
18041;DHT22;9145;48.588;9.250;2022-10-24T02:00:24;17.50;99.90
18041;DHT22;9145;48.588;9.250;2022-10-24T02:02:55;17.50;99.90
18041;DHT22;9145;48.588;9.250;2022-10-24T02:05:27;17.50;99.90
18041;DHT22;9145;48.588;9.250;2022-10-24T02:08:00;17.60;99.90
18041;DHT22;9145;48.588;9.250;2022-10-24T02:10:30;17.50;99.90
18041;DHT22;9145;48.588;9.250;2022-10-24T02:13:02;17.60;99.90
18041;DHT22;9145;48.588;9.250;2022-10-24T02:15:33;17.60;99.90
18041;DHT22;9145;48.588;9.250;2022-10-24T02:18:02;17.70;99.90
18041;DHT22;9145;48.588;9.250;2022-10-24T02:20:33;17.70;99.90
18041;DHT22;9145;48.588;9.250;2022-10-24T02:23:04;17.70;99.90
18041;DHT22;9145;48.588;9.250;2022-10-24T02:25:35;17.70;99.90
18041;DHT22;9145;48.588;9.250;2022-10-24T02:28:07;17.60;99.90
18041;DHT22;9145;48.588;9.250;2022-10-24T02:30:39;17.40;99.90
18041;DHT22;9145;48.588;9.250;2022-10-24T02:33:10;17.30;99.90
18041;DHT22;9145;48.588;9.250;2022-10-24T02:35:38;17.10;99.90
18041;DHT22;9145;48.588;9.250;2022-10-24T02:38:11;17.10;99.90
18041;DHT22;9145;48.588;9.250;2022-10-24T02:40:40;17.00;99.90
18041;DHT22;9145;48.588;9.250;2022-10-24T02:43:08;16.90;99.90
18041;DHT22;9145;48.588;9.250;2022-10-24T02:45:36;16.90;99.90
18041;DHT22;9145;48.588;9.250;2022-10-24T02:48:07;16.80;99.90
18041;DHT22;9145;48.588;9.250;2022-10-24T02:50:37;16.80;99.90
18041;DHT22;9145;48.588;9.250;2022-10-24T02:53:08;16.80;99.90
18041;DHT22;9145;48.588;9.250;2022-10-24T02:55:35;16.80;99.90
18041;DHT22;9145;48.588;9.250;2022-10-24T02:58:02;16.70;99.90
18041;DHT22;9145;48.588;9.250;2022-10-24T03:00:28;16.70;99.90
18041;DHT22;9145;48.588;9.250;2022-10-24T03:02:55;16.60;99.90
18041;DHT22;9145;48.588;9.250;2022-10-24T03:05:22;16.60;99.90
18041;DHT22;9145;48.588;9.250;2022-10-24T03:07:50;16.50;99.90
18041;DHT22;9145;48.588;9.250;2022-10-24T03:10:17;16.50;99.90
18041;DHT22;9145;48.588;9.250;2022-10-24T03:12:44;16.50;99.90
18041;DHT22;9145;48.588;9.250;2022-10-24T03:15:11;16.50;99.90
18041;DHT22;9145;48.588;9.250;2022-10-24T03:17:38;16.40;99.90
18041;DHT22;9145;48.588;9.250;2022-10-24T03:20:05;16.50;99.90
18041;DHT22;9145;48.588;9.250;2022-10-24T03:22:32;16.50;99.90
18041;DHT22;9145;48.588;9.250;2022-10-24T03:25:00;16.50;99.90
18041;DHT22;9145;48.588;9.250;2022-10-24T03:27:28;16.60;99.90
18041;DHT22;9145;48.588;9.250;2022-10-24T03:29:55;16.60;99.90
18041;DHT22;9145;48.588;9.250;2022-10-24T03:32:22;16.70;99.90
18041;DHT22;9145;48.588;9.250;2022-10-24T03:34:49;16.70;99.90
18041;DHT22;9145;48.588;9.250;2022-10-24T03:37:16;16.70;99.90
18041;DHT22;9145;48.588;9.250;2022-10-24T03:39:43;16.70;99.90
18041;DHT22;9145;48.588;9.250;2022-10-24T03:42:11;16.70;99.90
18041;DHT22;9145;48.588;9.250;2022-10-24T03:44:38;16.70;99.90
18041;DHT22;9145;48.588;9.250;2022-10-24T03:47:05;16.70;99.90
18041;DHT22;9145;48.588;9.250;2022-10-24T03:49:32;16.70;99.90
18041;DHT22;9145;48.588;9.250;2022-10-24T03:51:59;16.60;99.90
18041;DHT22;9145;48.588;9.250;2022-10-24T03:54:26;16.60;99.90
18041;DHT22;9145;48.588;9.250;2022-10-24T03:56:52;16.70;99.90
18041;DHT22;9145;48.588;9.250;2022-10-24T03:59:21;16.60;99.90
18041;DHT22;9145;48.588;9.250;2022-10-24T04:01:48;16.60;99.90
18041;DHT22;9145;48.588;9.250;2022-10-24T04:04:14;16.70;99.90
18041;DHT22;9145;48.588;9.250;2022-10-24T04:06:41;16.70;99.90
18041;DHT22;9145;48.588;9.250;2022-10-24T04:09:08;16.70;99.90
18041;DHT22;9145;48.588;9.250;2022-10-24T04:11:35;16.80;99.90
18041;DHT22;9145;48.588;9.250;2022-10-24T04:14:02;16.70;99.90
18041;DHT22;9145;48.588;9.250;2022-10-24T04:16:30;16.70;99.90
18041;DHT22;9145;48.588;9.250;2022-10-24T04:18:59;16.80;99.90
18041;DHT22;9145;48.588;9.250;2022-10-24T04:21:26;16.80;99.90
18041;DHT22;9145;48.588;9.250;2022-10-24T04:23:53;16.80;99.90
18041;DHT22;9145;48.588;9.250;2022-10-24T04:26:20;16.80;99.90
18041;DHT22;9145;48.588;9.250;2022-10-24T04:28:47;16.90;99.90
18041;DHT22;9145;48.588;9.250;2022-10-24T04:31:14;16.90;99.90
18041;DHT22;9145;48.588;9.250;2022-10-24T04:33:42;16.90;99.90
18041;DHT22;9145;48.588;9.250;2022-10-24T04:36:09;16.90;99.90
18041;DHT22;9145;48.588;9.250;2022-10-24T04:38:36;16.90;99.90
18041;DHT22;9145;48.588;9.250;2022-10-24T04:41:03;16.90;99.90
18041;DHT22;9145;48.588;9.250;2022-10-24T04:43:30;16.90;99.90
18041;DHT22;9145;48.588;9.250;2022-10-24T04:45:57;16.80;99.90
18041;DHT22;9145;48.588;9.250;2022-10-24T04:48:24;16.90;99.90
18041;DHT22;9145;48.588;9.250;2022-10-24T04:50:52;16.90;99.90
18041;DHT22;9145;48.588;9.250;2022-10-24T04:53:19;16.90;99.90
18041;DHT22;9145;48.588;9.250;2022-10-24T04:55:45;16.90;99.90
18041;DHT22;9145;48.588;9.250;2022-10-24T04:58:12;16.90;99.90
18041;DHT22;9145;48.588;9.250;2022-10-24T05:00:39;17.00;99.90
18041;DHT22;9145;48.588;9.250;2022-10-24T05:03:11;17.00;99.90
18041;DHT22;9145;48.588;9.250;2022-10-24T05:05:38;17.00;99.90
18041;DHT22;9145;48.588;9.250;2022-10-24T05:08:06;17.00;99.90
18041;DHT22;9145;48.588;9.250;2022-10-24T05:10:32;17.00;99.90
18041;DHT22;9145;48.588;9.250;2022-10-24T05:12:59;17.10;99.90
18041;DHT22;9145;48.588;9.250;2022-10-24T05:15:26;17.10;99.90
18041;DHT22;9145;48.588;9.250;2022-10-24T05:17:54;17.10;99.90
18041;DHT22;9145;48.588;9.250;2022-10-24T05:20:21;17.20;99.90
18041;DHT22;9145;48.588;9.250;2022-10-24T05:22:48;17.20;99.90
18041;DHT22;9145;48.588;9.250;2022-10-24T05:25:16;17.20;99.90
18041;DHT22;9145;48.588;9.250;2022-10-24T05:27:43;17.10;99.90
18041;DHT22;9145;48.588;9.250;2022-10-24T05:30:11;17.10;99.90
18041;DHT22;9145;48.588;9.250;2022-10-24T05:32:38;17.10;99.90
18041;DHT22;9145;48.588;9.250;2022-10-24T05:35:06;17.10;99.90
18041;DHT22;9145;48.588;9.250;2022-10-24T05:37:33;17.10;99.90
18041;DHT22;9145;48.588;9.250;2022-10-24T05:40:00;17.10;99.90
18041;DHT22;9145;48.588;9.250;2022-10-24T05:42:28;17.00;99.90
18041;DHT22;9145;48.588;9.250;2022-10-24T05:44:55;17.00;99.90
18041;DHT22;9145;48.588;9.250;2022-10-24T05:47:22;17.00;99.90
18041;DHT22;9145;48.588;9.250;2022-10-24T05:49:49;17.00;99.90
18041;DHT22;9145;48.588;9.250;2022-10-24T05:52:16;16.90;99.90
18041;DHT22;9145;48.588;9.250;2022-10-24T05:54:42;16.90;99.90
18041;DHT22;9145;48.588;9.250;2022-10-24T05:57:09;16.80;99.90
18041;DHT22;9145;48.588;9.250;2022-10-24T05:59:37;16.70;99.90
18041;DHT22;9145;48.588;9.250;2022-10-24T06:02:04;16.70;99.90
18041;DHT22;9145;48.588;9.250;2022-10-24T06:04:31;16.60;99.90
18041;DHT22;9145;48.588;9.250;2022-10-24T06:06:58;16.60;99.90
18041;DHT22;9145;48.588;9.250;2022-10-24T06:09:25;16.60;99.90
18041;DHT22;9145;48.588;9.250;2022-10-24T06:11:51;16.60;99.90
18041;DHT22;9145;48.588;9.250;2022-10-24T06:14:18;16.50;99.90
18041;DHT22;9145;48.588;9.250;2022-10-24T06:16:46;16.50;99.90
18041;DHT22;9145;48.588;9.250;2022-10-24T06:19:13;16.50;99.90
18041;DHT22;9145;48.588;9.250;2022-10-24T06:21:40;16.60;99.90
18041;DHT22;9145;48.588;9.250;2022-10-24T06:24:07;16.50;99.90
18041;DHT22;9145;48.588;9.250;2022-10-24T06:26:34;16.50;99.90
18041;DHT22;9145;48.588;9.250;2022-10-24T06:29:01;16.60;99.90
18041;DHT22;9145;48.588;9.250;2022-10-24T06:31:27;16.60;99.90
18041;DHT22;9145;48.588;9.250;2022-10-24T06:33:55;16.60;99.90
18041;DHT22;9145;48.588;9.250;2022-10-24T06:36:22;16.60;99.90
18041;DHT22;9145;48.588;9.250;2022-10-24T06:38:49;16.60;99.90
18041;DHT22;9145;48.588;9.250;2022-10-24T06:41:16;16.60;99.90
18041;DHT22;9145;48.588;9.250;2022-10-24T06:43:43;16.60;99.90
18041;DHT22;9145;48.588;9.250;2022-10-24T06:46:12;16.50;99.90
18041;DHT22;9145;48.588;9.250;2022-10-24T06:48:40;16.50;99.90
18041;DHT22;9145;48.588;9.250;2022-10-24T06:51:08;16.50;99.90
18041;DHT22;9145;48.588;9.250;2022-10-24T06:53:35;16.60;99.90
18041;DHT22;9145;48.588;9.250;2022-10-24T06:56:03;16.60;99.90
18041;DHT22;9145;48.588;9.250;2022-10-24T06:58:31;16.60;99.90
18041;DHT22;9145;48.588;9.250;2022-10-24T07:00:58;16.50;99.90
18041;DHT22;9145;48.588;9.250;2022-10-24T07:03:25;16.40;99.90
18041;DHT22;9145;48.588;9.250;2022-10-24T07:05:52;16.40;99.90
18041;DHT22;9145;48.588;9.250;2022-10-24T07:08:20;16.40;99.90
18041;DHT22;9145;48.588;9.250;2022-10-24T07:10:47;16.40;99.90
18041;DHT22;9145;48.588;9.250;2022-10-24T07:13:13;16.40;99.90
18041;DHT22;9145;48.588;9.250;2022-10-24T07:15:40;16.50;99.90
18041;DHT22;9145;48.588;9.250;2022-10-24T07:18:12;16.50;99.90
18041;DHT22;9145;48.588;9.250;2022-10-24T07:20:40;16.60;99.90
18041;DHT22;9145;48.588;9.250;2022-10-24T07:23:07;16.60;99.90
18041;DHT22;9145;48.588;9.250;2022-10-24T07:25:36;16.60;99.90
18041;DHT22;9145;48.588;9.250;2022-10-24T07:28:04;16.60;99.90
18041;DHT22;9145;48.588;9.250;2022-10-24T07:30:31;16.50;99.90
18041;DHT22;9145;48.588;9.250;2022-10-24T07:32:58;16.50;99.90
18041;DHT22;9145;48.588;9.250;2022-10-24T07:35:25;16.50;99.90
18041;DHT22;9145;48.588;9.250;2022-10-24T07:37:52;16.50;99.90
18041;DHT22;9145;48.588;9.250;2022-10-24T07:40:19;16.40;99.90
18041;DHT22;9145;48.588;9.250;2022-10-24T07:42:47;16.40;99.90
18041;DHT22;9145;48.588;9.250;2022-10-24T07:45:14;16.40;99.90
18041;DHT22;9145;48.588;9.250;2022-10-24T07:47:41;16.40;99.90
18041;DHT22;9145;48.588;9.250;2022-10-24T07:50:08;16.30;99.90
18041;DHT22;9145;48.588;9.250;2022-10-24T07:52:35;16.30;99.90
18041;DHT22;9145;48.588;9.250;2022-10-24T07:55:02;16.20;99.90
18041;DHT22;9145;48.588;9.250;2022-10-24T07:57:28;16.20;99.90
18041;DHT22;9145;48.588;9.250;2022-10-24T07:59:56;16.20;99.90
18041;DHT22;9145;48.588;9.250;2022-10-24T08:02:23;16.30;99.90
18041;DHT22;9145;48.588;9.250;2022-10-24T08:04:50;16.20;99.90
18041;DHT22;9145;48.588;9.250;2022-10-24T08:07:17;16.20;99.90
18041;DHT22;9145;48.588;9.250;2022-10-24T08:09:45;16.20;99.90
18041;DHT22;9145;48.588;9.250;2022-10-24T08:12:13;16.10;99.90
18041;DHT22;9145;48.588;9.250;2022-10-24T08:14:40;16.00;99.90
18041;DHT22;9145;48.588;9.250;2022-10-24T08:17:09;16.00;99.90
18041;DHT22;9145;48.588;9.250;2022-10-24T08:19:37;16.00;99.90
18041;DHT22;9145;48.588;9.250;2022-10-24T08:22:07;16.00;99.90
18041;DHT22;9145;48.588;9.250;2022-10-24T08:24:34;15.90;99.90
18041;DHT22;9145;48.588;9.250;2022-10-24T08:27:01;15.90;99.90
18041;DHT22;9145;48.588;9.250;2022-10-24T08:29:28;16.00;99.90
18041;DHT22;9145;48.588;9.250;2022-10-24T08:31:55;16.00;99.90
18041;DHT22;9145;48.588;9.250;2022-10-24T08:34:23;16.10;99.90
18041;DHT22;9145;48.588;9.250;2022-10-24T08:36:50;16.10;99.90
18041;DHT22;9145;48.588;9.250;2022-10-24T08:39:18;16.10;99.90
18041;DHT22;9145;48.588;9.250;2022-10-24T08:41:49;16.20;99.90
18041;DHT22;9145;48.588;9.250;2022-10-24T08:44:25;16.20;99.90
18041;DHT22;9145;48.588;9.250;2022-10-24T08:46:55;16.30;99.90
18041;DHT22;9145;48.588;9.250;2022-10-24T08:49:32;16.30;99.90
18041;DHT22;9145;48.588;9.250;2022-10-24T08:52:02;16.30;99.90
18041;DHT22;9145;48.588;9.250;2022-10-24T08:54:35;16.30;99.90
18041;DHT22;9145;48.588;9.250;2022-10-24T08:57:03;16.30;99.90
18041;DHT22;9145;48.588;9.250;2022-10-24T08:59:33;16.30;99.90
18041;DHT22;9145;48.588;9.250;2022-10-24T09:02:04;16.30;99.90
18041;DHT22;9145;48.588;9.250;2022-10-24T09:04:44;16.30;99.90
18041;DHT22;9145;48.588;9.250;2022-10-24T09:07:16;16.30;99.90
18041;DHT22;9145;48.588;9.250;2022-10-24T09:09:46;16.20;99.90
18041;DHT22;9145;48.588;9.250;2022-10-24T09:12:15;16.20;99.90
18041;DHT22;9145;48.588;9.250;2022-10-24T09:14:44;16.20;99.90
18041;DHT22;9145;48.588;9.250;2022-10-24T09:17:16;16.20;99.90
18041;DHT22;9145;48.588;9.250;2022-10-24T09:19:49;16.10;99.90
18041;DHT22;9145;48.588;9.250;2022-10-24T09:22:17;16.10;99.90
18041;DHT22;9145;48.588;9.250;2022-10-24T09:24:47;16.10;99.90
18041;DHT22;9145;48.588;9.250;2022-10-24T09:27:18;16.10;99.90
18041;DHT22;9145;48.588;9.250;2022-10-24T09:29:46;16.20;99.90
18041;DHT22;9145;48.588;9.250;2022-10-24T09:32:15;16.10;99.90
18041;DHT22;9145;48.588;9.250;2022-10-24T09:34:44;16.20;99.90
18041;DHT22;9145;48.588;9.250;2022-10-24T09:37:31;16.20;99.90
18041;DHT22;9145;48.588;9.250;2022-10-24T09:40:07;16.20;99.90
18041;DHT22;9145;48.588;9.250;2022-10-24T09:42:36;16.20;99.90
18041;DHT22;9145;48.588;9.250;2022-10-24T09:45:27;16.20;99.90
18041;DHT22;9145;48.588;9.250;2022-10-24T09:47:55;16.20;99.90
18041;DHT22;9145;48.588;9.250;2022-10-24T09:50:24;16.20;99.90
18041;DHT22;9145;48.588;9.250;2022-10-24T09:52:54;16.30;99.90
18041;DHT22;9145;48.588;9.250;2022-10-24T09:55:24;16.30;99.90
18041;DHT22;9145;48.588;9.250;2022-10-24T09:57:53;16.40;99.90
18041;DHT22;9145;48.588;9.250;2022-10-24T10:00:24;16.40;99.90
18041;DHT22;9145;48.588;9.250;2022-10-24T10:02:59;16.40;99.90
18041;DHT22;9145;48.588;9.250;2022-10-24T10:05:40;16.40;99.90
18041;DHT22;9145;48.588;9.250;2022-10-24T10:08:10;16.40;99.90
18041;DHT22;9145;48.588;9.250;2022-10-24T10:10:38;16.40;99.90
18041;DHT22;9145;48.588;9.250;2022-10-24T10:13:16;16.40;99.90
18041;DHT22;9145;48.588;9.250;2022-10-24T10:15:47;16.50;99.90
18041;DHT22;9145;48.588;9.250;2022-10-24T10:18:27;16.50;99.90
18041;DHT22;9145;48.588;9.250;2022-10-24T10:21:05;16.60;99.90
18041;DHT22;9145;48.588;9.250;2022-10-24T10:23:34;16.60;99.90
18041;DHT22;9145;48.588;9.250;2022-10-24T10:28:57;16.60;99.90
18041;DHT22;9145;48.588;9.250;2022-10-24T10:31:28;16.60;99.90
18041;DHT22;9145;48.588;9.250;2022-10-24T10:34:10;16.60;99.90
18041;DHT22;9145;48.588;9.250;2022-10-24T10:36:45;16.60;99.90
18041;DHT22;9145;48.588;9.250;2022-10-24T10:39:24;16.60;99.90
18041;DHT22;9145;48.588;9.250;2022-10-24T10:41:56;16.60;99.90
18041;DHT22;9145;48.588;9.250;2022-10-24T10:44:37;16.60;99.90
18041;DHT22;9145;48.588;9.250;2022-10-24T10:47:12;16.60;99.90
18041;DHT22;9145;48.588;9.250;2022-10-24T10:49:42;16.50;99.90
18041;DHT22;9145;48.588;9.250;2022-10-24T10:52:16;16.50;99.90
18041;DHT22;9145;48.588;9.250;2022-10-24T10:55:03;16.50;99.90
18041;DHT22;9145;48.588;9.250;2022-10-24T10:57:38;16.50;99.90
18041;DHT22;9145;48.588;9.250;2022-10-24T11:00:10;16.50;99.90
18041;DHT22;9145;48.588;9.250;2022-10-24T11:03:00;16.60;99.90
18041;DHT22;9145;48.588;9.250;2022-10-24T11:05:39;16.50;99.90
18041;DHT22;9145;48.588;9.250;2022-10-24T11:08:17;16.50;99.90
18041;DHT22;9145;48.588;9.250;2022-10-24T11:10:50;16.50;99.90
18041;DHT22;9145;48.588;9.250;2022-10-24T11:13:21;16.50;99.90
18041;DHT22;9145;48.588;9.250;2022-10-24T11:15:53;16.50;99.90
18041;DHT22;9145;48.588;9.250;2022-10-24T11:18:23;16.60;99.90
18041;DHT22;9145;48.588;9.250;2022-10-24T11:20:55;16.60;99.90
18041;DHT22;9145;48.588;9.250;2022-10-24T11:23:28;16.60;99.90
18041;DHT22;9145;48.588;9.250;2022-10-24T11:26:01;16.60;99.90
18041;DHT22;9145;48.588;9.250;2022-10-24T11:28:33;16.60;99.90
18041;DHT22;9145;48.588;9.250;2022-10-24T11:31:07;16.60;99.90
18041;DHT22;9145;48.588;9.250;2022-10-24T11:33:42;16.70;99.90
18041;DHT22;9145;48.588;9.250;2022-10-24T11:36:14;16.60;99.90
18041;DHT22;9145;48.588;9.250;2022-10-24T11:38:47;16.70;99.90
18041;DHT22;9145;48.588;9.250;2022-10-24T11:41:29;16.70;99.90
18041;DHT22;9145;48.588;9.250;2022-10-24T11:44:02;16.70;99.90
18041;DHT22;9145;48.588;9.250;2022-10-24T11:46:35;16.80;99.90
18041;DHT22;9145;48.588;9.250;2022-10-24T11:49:11;16.80;99.90
18041;DHT22;9145;48.588;9.250;2022-10-24T11:51:48;16.80;99.90
18041;DHT22;9145;48.588;9.250;2022-10-24T11:54:21;16.80;99.90
18041;DHT22;9145;48.588;9.250;2022-10-24T11:56:53;16.90;99.90
18041;DHT22;9145;48.588;9.250;2022-10-24T11:59:22;16.90;99.90
18041;DHT22;9145;48.588;9.250;2022-10-24T12:01:59;17.00;99.90
18041;DHT22;9145;48.588;9.250;2022-10-24T12:04:56;17.00;99.90
18041;DHT22;9145;48.588;9.250;2022-10-24T12:13:42;17.00;99.90
18041;DHT22;9145;48.588;9.250;2022-10-24T12:16:21;17.10;99.90
18041;DHT22;9145;48.588;9.250;2022-10-24T12:18:56;17.10;99.90
18041;DHT22;9145;48.588;9.250;2022-10-24T12:21:27;17.10;99.90
18041;DHT22;9145;48.588;9.250;2022-10-24T12:24:00;17.10;99.90
18041;DHT22;9145;48.588;9.250;2022-10-24T12:26:29;17.00;99.90
18041;DHT22;9145;48.588;9.250;2022-10-24T12:28:58;17.00;99.90
18041;DHT22;9145;48.588;9.250;2022-10-24T12:31:27;17.00;99.90
18041;DHT22;9145;48.588;9.250;2022-10-24T12:34:30;16.90;99.90
18041;DHT22;9145;48.588;9.250;2022-10-24T12:37:08;16.90;99.90
18041;DHT22;9145;48.588;9.250;2022-10-24T12:39:38;17.00;99.90
18041;DHT22;9145;48.588;9.250;2022-10-24T12:42:13;17.00;99.90
18041;DHT22;9145;48.588;9.250;2022-10-24T12:44:45;17.00;99.90
18041;DHT22;9145;48.588;9.250;2022-10-24T12:47:27;17.00;99.90
18041;DHT22;9145;48.588;9.250;2022-10-24T12:49:54;17.00;99.90
18041;DHT22;9145;48.588;9.250;2022-10-24T12:52:50;16.90;99.90
18041;DHT22;9145;48.588;9.250;2022-10-24T12:55:30;17.00;99.90
18041;DHT22;9145;48.588;9.250;2022-10-24T12:57:58;17.00;99.90
18041;DHT22;9145;48.588;9.250;2022-10-24T13:00:26;17.00;99.90
18041;DHT22;9145;48.588;9.250;2022-10-24T13:03:06;17.00;99.90
18041;DHT22;9145;48.588;9.250;2022-10-24T13:05:47;17.00;99.90
18041;DHT22;9145;48.588;9.250;2022-10-24T13:08:30;17.10;99.90
18041;DHT22;9145;48.588;9.250;2022-10-24T13:11:12;17.20;99.90
18041;DHT22;9145;48.588;9.250;2022-10-24T13:14:07;17.30;99.90
18041;DHT22;9145;48.588;9.250;2022-10-24T13:16:53;17.30;99.90
18041;DHT22;9145;48.588;9.250;2022-10-24T13:19:24;17.30;99.90
18041;DHT22;9145;48.588;9.250;2022-10-24T13:21:53;17.40;99.90
18041;DHT22;9145;48.588;9.250;2022-10-24T13:24:26;17.40;99.90
18041;DHT22;9145;48.588;9.250;2022-10-24T13:27:25;17.40;99.90
18041;DHT22;9145;48.588;9.250;2022-10-24T13:36:12;17.60;99.90
18041;DHT22;9145;48.588;9.250;2022-10-24T13:38:45;17.60;99.90
18041;DHT22;9145;48.588;9.250;2022-10-24T13:41:18;17.60;99.90
18041;DHT22;9145;48.588;9.250;2022-10-24T13:43:48;17.60;99.90
18041;DHT22;9145;48.588;9.250;2022-10-24T13:46:25;17.50;99.90
18041;DHT22;9145;48.588;9.250;2022-10-24T13:48:55;17.40;99.90
18041;DHT22;9145;48.588;9.250;2022-10-24T13:51:30;17.40;99.90
18041;DHT22;9145;48.588;9.250;2022-10-24T13:54:01;17.30;99.90
18041;DHT22;9145;48.588;9.250;2022-10-24T13:56:36;17.30;99.90
18041;DHT22;9145;48.588;9.250;2022-10-24T13:59:04;17.40;99.90
18041;DHT22;9145;48.588;9.250;2022-10-24T14:01:33;17.40;99.90
18041;DHT22;9145;48.588;9.250;2022-10-24T14:04:02;17.30;99.90
18041;DHT22;9145;48.588;9.250;2022-10-24T14:06:31;17.40;99.90
18041;DHT22;9145;48.588;9.250;2022-10-24T14:09:01;17.40;99.90
18041;DHT22;9145;48.588;9.250;2022-10-24T14:11:29;17.40;99.90
18041;DHT22;9145;48.588;9.250;2022-10-24T14:13:59;17.40;99.90
18041;DHT22;9145;48.588;9.250;2022-10-24T14:16:28;17.40;99.90
18041;DHT22;9145;48.588;9.250;2022-10-24T14:19:10;17.40;99.90
18041;DHT22;9145;48.588;9.250;2022-10-24T14:21:39;17.50;99.90
18041;DHT22;9145;48.588;9.250;2022-10-24T14:24:11;17.40;99.90
18041;DHT22;9145;48.588;9.250;2022-10-24T14:26:39;17.40;99.90
18041;DHT22;9145;48.588;9.250;2022-10-24T14:29:19;17.40;99.90
18041;DHT22;9145;48.588;9.250;2022-10-24T14:31:53;17.40;99.90
18041;DHT22;9145;48.588;9.250;2022-10-24T14:34:22;17.40;99.90
18041;DHT22;9145;48.588;9.250;2022-10-24T14:36:49;17.40;99.90
18041;DHT22;9145;48.588;9.250;2022-10-24T14:39:18;17.40;99.90
18041;DHT22;9145;48.588;9.250;2022-10-24T14:41:49;17.40;99.90
18041;DHT22;9145;48.588;9.250;2022-10-24T14:44:17;17.40;99.90
18041;DHT22;9145;48.588;9.250;2022-10-24T14:46:46;17.60;99.90
18041;DHT22;9145;48.588;9.250;2022-10-24T14:49:30;18.10;99.90
18041;DHT22;9145;48.588;9.250;2022-10-24T14:52:00;18.90;99.90
18041;DHT22;9145;48.588;9.250;2022-10-24T14:54:33;19.50;99.90
18041;DHT22;9145;48.588;9.250;2022-10-24T14:57:03;19.80;99.90
18041;DHT22;9145;48.588;9.250;2022-10-24T14:59:32;20.00;99.90
18041;DHT22;9145;48.588;9.250;2022-10-24T15:02:01;20.10;99.90
18041;DHT22;9145;48.588;9.250;2022-10-24T15:04:37;20.30;99.90
18041;DHT22;9145;48.588;9.250;2022-10-24T15:07:15;20.40;99.90
18041;DHT22;9145;48.588;9.250;2022-10-24T15:09:53;20.40;99.90
18041;DHT22;9145;48.588;9.250;2022-10-24T15:12:26;20.60;99.90
18041;DHT22;9145;48.588;9.250;2022-10-24T15:14:53;20.60;99.90
18041;DHT22;9145;48.588;9.250;2022-10-24T15:17:28;20.60;99.90
18041;DHT22;9145;48.588;9.250;2022-10-24T15:19:58;20.70;99.90
18041;DHT22;9145;48.588;9.250;2022-10-24T15:22:28;20.70;99.90
18041;DHT22;9145;48.588;9.250;2022-10-24T15:24:56;20.80;99.90
18041;DHT22;9145;48.588;9.250;2022-10-24T15:27:25;20.80;99.90
18041;DHT22;9145;48.588;9.250;2022-10-24T15:29:53;20.80;99.90
18041;DHT22;9145;48.588;9.250;2022-10-24T15:32:20;20.60;99.90
18041;DHT22;9145;48.588;9.250;2022-10-24T15:34:47;20.40;99.90
18041;DHT22;9145;48.588;9.250;2022-10-24T15:37:17;20.20;99.90
18041;DHT22;9145;48.588;9.250;2022-10-24T15:39:44;20.00;99.90
18041;DHT22;9145;48.588;9.250;2022-10-24T15:42:11;19.80;99.90
18041;DHT22;9145;48.588;9.250;2022-10-24T15:44:38;19.80;99.90
18041;DHT22;9145;48.588;9.250;2022-10-24T15:47:05;19.70;99.90
18041;DHT22;9145;48.588;9.250;2022-10-24T15:49:33;19.40;99.90
18041;DHT22;9145;48.588;9.250;2022-10-24T15:52:00;19.00;99.90
18041;DHT22;9145;48.588;9.250;2022-10-24T15:54:32;18.70;99.90
18041;DHT22;9145;48.588;9.250;2022-10-24T15:56:59;18.70;99.90
18041;DHT22;9145;48.588;9.250;2022-10-24T15:59:26;18.70;99.90
18041;DHT22;9145;48.588;9.250;2022-10-24T16:01:54;18.80;99.90
18041;DHT22;9145;48.588;9.250;2022-10-24T16:04:22;18.70;99.90
18041;DHT22;9145;48.588;9.250;2022-10-24T16:06:49;18.70;99.90
18041;DHT22;9145;48.588;9.250;2022-10-24T16:09:18;18.40;99.90
18041;DHT22;9145;48.588;9.250;2022-10-24T16:11:47;18.20;99.90
18041;DHT22;9145;48.588;9.250;2022-10-24T16:14:15;17.90;99.90
18041;DHT22;9145;48.588;9.250;2022-10-24T16:16:42;17.70;99.90
18041;DHT22;9145;48.588;9.250;2022-10-24T16:19:09;17.40;99.90
18041;DHT22;9145;48.588;9.250;2022-10-24T16:21:37;17.30;99.90